createdAt,value
2022-09-20T00:02:25.723Z,13.41
2022-09-20T00:04:52.549Z,13.37
2022-09-20T00:07:21.926Z,13.28
2022-09-20T00:09:48.759Z,13.35
2022-09-20T00:12:15.785Z,13.30
2022-09-20T00:14:42.563Z,13.38
2022-09-20T00:17:10.706Z,13.30
2022-09-20T00:19:37.483Z,13.29
2022-09-20T00:22:04.353Z,13.27
2022-09-20T00:24:31.272Z,13.24
2022-09-20T00:26:58.503Z,13.25
2022-09-20T00:29:25.887Z,13.24
2022-09-20T00:31:52.765Z,13.14
2022-09-20T00:34:39.697Z,13.07
2022-09-20T00:37:06.498Z,13.01
2022-09-20T00:39:33.269Z,12.94
2022-09-20T00:42:00.090Z,12.93
2022-09-20T00:44:51.224Z,12.99
2022-09-20T00:47:24.452Z,13.04
2022-09-20T00:49:59.287Z,13.05
2022-09-20T00:52:28.979Z,13.06
2022-09-20T00:54:57.108Z,13.05
2022-09-20T00:57:24.436Z,13.05
2022-09-20T00:59:52.776Z,12.98
2022-09-20T01:02:24.704Z,12.95
2022-09-20T01:04:51.973Z,12.99
2022-09-20T01:07:24.827Z,12.98
2022-09-20T01:09:53.066Z,12.92
2022-09-20T01:12:24.824Z,12.82
2022-09-20T01:14:53.641Z,12.75
2022-09-20T01:17:24.163Z,12.77
2022-09-20T01:22:47.526Z,12.84
2022-09-20T01:25:20.452Z,12.77
2022-09-20T01:27:54.020Z,12.69
2022-09-20T01:33:12.896Z,12.63
2022-09-20T01:35:43.399Z,12.64
2022-09-20T01:38:25.374Z,12.56
2022-09-20T01:41:06.345Z,12.48
2022-09-20T01:43:40.377Z,12.60
2022-09-20T01:46:16.594Z,12.62
2022-09-20T01:57:35.289Z,12.71
2022-09-20T02:00:15.344Z,12.69
2022-09-20T02:03:19.363Z,12.69
2022-09-20T02:06:23.270Z,12.63
2022-09-20T02:09:17.783Z,12.67
2022-09-20T02:12:07.658Z,12.68
2022-09-20T02:14:47.801Z,12.72
2022-09-20T02:17:23.324Z,12.61
2022-09-20T02:20:13.393Z,12.70
2022-09-20T02:22:57.196Z,12.80
2022-09-20T02:25:46.024Z,12.84
2022-09-20T02:34:27.421Z,13.16
2022-09-20T02:37:14.387Z,13.25
2022-09-20T02:39:54.047Z,13.25
2022-09-20T02:42:28.107Z,13.25
2022-09-20T02:45:00.074Z,13.13
2022-09-20T02:47:35.647Z,13.07
2022-09-20T02:50:05.321Z,12.99
2022-09-20T02:52:42.391Z,12.91
2022-09-20T02:58:24.230Z,12.91
2022-09-20T03:00:59.878Z,12.88
2022-09-20T03:03:41.452Z,12.89
2022-09-20T03:06:19.064Z,12.93
2022-09-20T03:08:56.812Z,12.89
2022-09-20T03:11:32.708Z,12.88
2022-09-20T03:14:07.447Z,12.86
2022-09-20T03:19:37.311Z,12.86
2022-09-20T03:22:25.548Z,12.79
2022-09-20T03:25:10.376Z,12.79
2022-09-20T03:27:55.346Z,12.71
2022-09-20T03:30:37.795Z,12.64
2022-09-20T03:33:16.123Z,12.61
2022-09-20T03:35:58.727Z,12.61
2022-09-20T03:38:48.909Z,12.59
2022-09-20T03:47:31.827Z,12.48
2022-09-20T03:50:22.334Z,12.44
2022-09-20T03:59:05.807Z,12.38
2022-09-20T04:01:47.612Z,12.42
2022-09-20T04:04:24.902Z,12.39
2022-09-20T04:18:01.297Z,12.26
2022-09-20T04:25:54.323Z,12.32
2022-09-20T04:28:26.830Z,12.36
2022-09-20T04:33:57.453Z,12.26
2022-09-20T04:36:56.567Z,12.25
2022-09-20T04:39:37.654Z,12.26
2022-09-20T04:59:07.833Z,12.19
2022-09-20T05:02:14.603Z,12.23
2022-09-20T05:05:15.124Z,12.23
2022-09-20T05:08:17.095Z,12.25
2022-09-20T05:10:55.555Z,12.18
2022-09-20T05:19:41.591Z,12.04
2022-09-20T05:22:42.517Z,12.01
2022-09-20T05:34:20.796Z,12.01
2022-09-20T05:46:07.296Z,12.12
2022-09-20T05:48:44.497Z,12.16
2022-09-20T05:51:22.277Z,12.23
2022-09-20T05:59:30.590Z,12.92
2022-09-20T06:04:50.421Z,13.35
2022-09-20T06:07:31.118Z,13.53
2022-09-20T06:10:31.602Z,13.68
2022-09-20T06:19:06.832Z,14.28
2022-09-20T06:21:42.788Z,14.23
2022-09-20T06:26:44.679Z,14.19
2022-09-20T06:38:46.817Z,14.50
2022-09-20T06:41:29.937Z,14.67
2022-09-20T06:44:00.212Z,14.96
2022-09-20T06:46:28.198Z,15.40
2022-09-20T06:48:55.337Z,15.37
2022-09-20T06:51:22.750Z,15.71
2022-09-20T06:53:50.076Z,16.57
2022-09-20T06:56:19.989Z,17.54
2022-09-20T06:58:46.946Z,17.81
2022-09-20T07:01:28.997Z,17.99
2022-09-20T07:03:56.310Z,18.34
2022-09-20T07:06:23.166Z,18.75
2022-09-20T07:08:49.960Z,19.00
2022-09-20T07:11:18.053Z,19.60
2022-09-20T07:13:49.843Z,19.55
2022-09-20T07:16:18.255Z,18.50
2022-09-20T07:18:45.122Z,17.64
2022-09-20T07:21:13.556Z,17.32
2022-09-20T07:23:40.439Z,17.13
2022-09-20T07:26:16.612Z,17.52
2022-09-20T07:28:43.379Z,17.73
2022-09-20T07:31:10.755Z,18.03
2022-09-20T07:33:39.028Z,17.92
2022-09-20T07:36:06.210Z,17.79
2022-09-20T07:38:33.026Z,17.64
2022-09-20T07:41:02.262Z,17.58
2022-09-20T07:43:30.321Z,17.49
2022-09-20T07:45:59.474Z,17.37
2022-09-20T07:48:29.262Z,17.30
2022-09-20T07:51:04.751Z,17.18
2022-09-20T07:53:35.258Z,17.12
2022-09-20T07:56:04.347Z,17.11
2022-09-20T07:58:34.055Z,16.91
2022-09-20T08:01:02.237Z,16.85
2022-09-20T08:03:30.519Z,16.63
2022-09-20T08:06:01.434Z,16.84
2022-09-20T08:08:31.938Z,17.17
2022-09-20T08:11:05.437Z,17.42
2022-09-20T08:16:23.214Z,17.56
2022-09-20T08:18:52.624Z,17.69
2022-09-20T08:21:20.887Z,18.00
2022-09-20T08:23:48.999Z,18.56
2022-09-20T08:26:20.506Z,19.18
2022-09-20T08:28:52.297Z,19.57
2022-09-20T08:31:20.995Z,19.81
2022-09-20T08:33:50.372Z,20.16
2022-09-20T08:36:21.128Z,20.53
2022-09-20T08:41:36.486Z,21.32
2022-09-20T08:44:06.271Z,21.04
2022-09-20T08:46:36.780Z,20.83
2022-09-20T08:49:10.603Z,20.73
2022-09-20T08:51:41.890Z,20.18
2022-09-20T08:54:14.303Z,20.37
2022-09-20T08:56:41.149Z,20.43
2022-09-20T08:59:14.906Z,20.54
2022-09-20T09:01:41.737Z,20.23
2022-09-20T09:04:13.878Z,20.25
2022-09-20T09:06:42.499Z,20.35
2022-09-20T09:09:18.768Z,20.65
2022-09-20T09:11:46.586Z,20.72
2022-09-20T09:14:40.413Z,20.79
2022-09-20T09:17:11.218Z,20.94
2022-09-20T09:19:45.274Z,20.49
2022-09-20T09:22:20.104Z,20.73
2022-09-20T09:25:06.488Z,21.34
2022-09-20T09:27:35.141Z,21.90
2022-09-20T09:30:02.250Z,22.26
2022-09-20T09:32:32.656Z,22.12
2022-09-20T09:35:22.883Z,21.73
2022-09-20T09:37:57.496Z,21.37
2022-09-20T09:40:25.694Z,20.89
2022-09-20T09:42:54.758Z,20.80
2022-09-20T09:45:29.297Z,20.74
2022-09-20T09:47:57.865Z,20.49
2022-09-20T09:50:26.960Z,20.25
2022-09-20T09:53:06.138Z,20.46
2022-09-20T09:56:12.031Z,20.43
2022-09-20T09:58:54.928Z,20.12
2022-09-20T10:01:33.410Z,20.02
2022-09-20T10:04:07.690Z,20.00
2022-09-20T10:06:45.387Z,20.01
2022-09-20T10:09:29.348Z,20.35
2022-09-20T10:12:12.248Z,20.59
2022-09-20T10:14:51.379Z,20.69
2022-09-20T10:17:35.005Z,20.93
2022-09-20T10:20:28.697Z,20.87
2022-09-20T10:23:34.802Z,20.90
2022-09-20T10:26:05.769Z,20.38
2022-09-20T10:28:48.646Z,20.93
2022-09-20T11:04:00.633Z,21.27
2022-09-20T11:06:44.174Z,21.45
2022-09-20T11:12:03.631Z,21.72
2022-09-20T11:14:35.306Z,22.65
2022-09-20T11:17:09.474Z,22.96
2022-09-20T11:19:48.848Z,22.23
2022-09-20T11:22:22.602Z,22.51
2022-09-20T11:24:50.997Z,22.55
2022-09-20T11:27:22.181Z,22.08
2022-09-20T11:29:56.154Z,23.04
2022-09-20T11:32:28.565Z,23.05
2022-09-20T11:34:59.215Z,22.24
2022-09-20T11:51:29.351Z,22.44
2022-09-20T11:54:03.112Z,21.16
2022-09-20T11:56:32.257Z,20.83
2022-09-20T12:02:24.058Z,18.76
2022-09-20T12:04:53.443Z,19.32
2022-09-20T12:07:26.044Z,18.73
2022-09-20T12:09:56.324Z,19.13
2022-09-20T12:24:09.752Z,20.05
2022-09-20T12:47:54.911Z,20.98
2022-09-20T12:50:41.626Z,20.71
2022-09-20T12:53:13.737Z,21.11
2022-09-20T12:55:49.768Z,21.60
2022-09-20T12:58:32.367Z,21.76
2022-09-20T13:25:07.490Z,21.88
2022-09-20T13:27:37.448Z,22.00
2022-09-20T13:30:20.181Z,22.15
2022-09-20T13:32:49.055Z,22.42
2022-09-20T13:35:18.424Z,22.55
2022-09-20T13:37:55.399Z,22.76
2022-09-20T13:40:30.351Z,22.81
2022-09-20T13:43:22.107Z,22.62
2022-09-20T13:45:51.025Z,22.52
2022-09-20T13:48:18.280Z,21.80
2022-09-20T13:50:49.040Z,21.67
2022-09-20T13:53:39.436Z,21.91
2022-09-20T14:02:14.587Z,21.59
2022-09-20T14:04:41.625Z,22.07
2022-09-20T14:07:18.960Z,22.07
2022-09-20T14:12:58.522Z,21.77
2022-09-20T14:15:30.942Z,21.36
2022-09-20T14:17:58.488Z,21.45
2022-09-20T14:20:26.924Z,21.64
2022-09-20T14:31:46.224Z,22.43
2022-09-20T14:34:13.630Z,22.27
2022-09-20T14:36:40.655Z,22.14
2022-09-20T14:39:15.763Z,21.87
2022-09-20T14:58:08.488Z,21.71
2022-09-20T15:00:47.609Z,21.75
2022-09-20T15:06:00.385Z,21.31
2022-09-20T15:08:41.709Z,21.52
2022-09-20T15:11:14.356Z,21.18
2022-09-20T15:13:42.713Z,21.66
2022-09-20T15:16:44.687Z,21.67
2022-09-20T15:21:41.520Z,21.86
2022-09-20T15:24:08.379Z,21.33
2022-09-20T15:26:35.195Z,21.28
2022-09-20T15:29:03.451Z,21.66
2022-09-20T15:31:30.468Z,21.89
2022-09-20T15:33:57.486Z,21.68
2022-09-20T15:36:24.458Z,21.72
2022-09-20T15:38:53.638Z,21.38
2022-09-20T15:41:21.529Z,21.38
2022-09-20T15:43:50.359Z,21.39
2022-09-20T15:46:20.617Z,21.67
2022-09-20T15:48:47.749Z,21.50
2022-09-20T15:51:15.342Z,21.64
2022-09-20T15:53:49.326Z,21.43
2022-09-20T15:56:18.351Z,21.58
2022-09-20T15:58:47.311Z,21.49
2022-09-20T16:01:16.708Z,21.29
2022-09-20T16:03:46.190Z,21.51
2022-09-20T16:06:13.773Z,21.62
2022-09-20T16:08:42.510Z,21.42
2022-09-20T16:11:11.476Z,21.40
2022-09-20T16:13:38.847Z,21.24
2022-09-20T16:16:07.265Z,21.27
2022-09-20T16:18:54.429Z,21.42
2022-09-20T16:21:23.627Z,21.24
2022-09-20T16:23:52.455Z,21.37
2022-09-20T16:34:38.201Z,21.22
2022-09-20T16:40:51.555Z,21.18
2022-09-20T16:46:27.543Z,20.94
2022-09-20T16:48:56.874Z,20.79
2022-09-20T16:51:26.075Z,20.79
2022-09-20T16:53:55.748Z,20.76
2022-09-20T16:56:24.338Z,20.68
2022-09-20T16:58:51.921Z,20.59
2022-09-20T17:01:18.894Z,20.47
2022-09-20T17:03:47.136Z,20.30
2022-09-20T17:06:15.023Z,20.37
2022-09-20T17:08:44.800Z,20.19
2022-09-20T17:11:15.031Z,20.09
2022-09-20T17:13:43.505Z,20.09
2022-09-20T17:16:12.657Z,19.91
2022-09-20T17:18:42.039Z,19.85
2022-09-20T17:21:10.584Z,19.78
2022-09-20T17:23:37.660Z,19.59
2022-09-20T17:26:07.611Z,19.46
2022-09-20T17:28:37.786Z,19.49
2022-09-20T17:31:12.255Z,19.47
2022-09-20T17:33:40.439Z,19.38
2022-09-20T17:36:09.913Z,19.29
2022-09-20T17:38:36.913Z,19.23
2022-09-20T19:15:30.531Z,17.06
2022-09-20T19:18:11.152Z,17.06
2022-09-20T19:20:46.375Z,16.90
2022-09-20T19:23:36.339Z,16.90
2022-09-20T19:26:08.620Z,16.85
2022-09-20T19:28:36.204Z,16.88
2022-09-20T19:31:05.104Z,16.85
2022-09-20T19:55:26.548Z,16.55
2022-09-20T19:57:55.941Z,16.53
2022-09-20T20:00:23.822Z,16.43
2022-09-20T20:02:51.243Z,16.34
2022-09-20T20:05:20.198Z,16.30
2022-09-20T20:07:52.101Z,16.32
2022-09-20T20:10:25.628Z,16.25
2022-09-20T20:13:04.270Z,16.27
2022-09-20T20:15:45.177Z,16.28
2022-09-20T20:18:22.679Z,16.16
2022-09-20T20:20:51.562Z,16.08
2022-09-20T20:23:35.696Z,16.02
2022-09-20T20:26:06.805Z,16.13
2022-09-20T20:28:35.425Z,16.09
2022-09-20T20:31:02.705Z,15.98
2022-09-20T20:33:30.707Z,15.86
2022-09-20T20:35:59.218Z,15.82
2022-09-20T20:38:27.191Z,15.80
2022-09-20T20:41:04.596Z,15.75
2022-09-20T20:43:32.335Z,15.72
2022-09-20T20:46:00.619Z,15.59
2022-09-20T20:48:27.500Z,15.64
2022-09-20T20:51:01.948Z,15.63
2022-09-20T20:53:33.143Z,15.62
2022-09-20T20:56:05.898Z,15.55
2022-09-20T20:58:33.184Z,15.46
2022-09-20T21:01:09.842Z,15.40
2022-09-20T21:03:36.834Z,15.43
2022-09-20T21:06:04.777Z,15.35
2022-09-20T21:08:32.997Z,15.29
2022-09-20T21:11:02.040Z,15.22
2022-09-20T21:13:30.089Z,15.19
2022-09-20T21:16:04.970Z,15.21
2022-09-20T21:18:33.760Z,15.24
2022-09-20T21:21:02.534Z,15.22
2022-09-20T21:23:32.491Z,15.18
2022-09-20T21:26:07.887Z,15.20
2022-09-20T21:28:36.885Z,15.16
2022-09-20T21:31:05.344Z,15.07
2022-09-20T21:33:34.977Z,15.09
2022-09-20T21:36:02.794Z,15.05
2022-09-20T21:38:33.280Z,14.97
2022-09-20T21:41:05.268Z,14.99
2022-09-20T21:43:32.122Z,15.02
2022-09-20T21:45:59.046Z,15.07
2022-09-20T21:48:26.934Z,15.04
2022-09-20T21:51:01.676Z,15.04
2022-09-20T21:53:29.252Z,15.07
2022-09-20T21:55:57.315Z,14.95
2022-09-20T21:58:24.463Z,15.00
2022-09-20T22:01:01.994Z,15.02
2022-09-20T22:03:34.212Z,15.02
2022-09-20T22:06:07.627Z,15.03
2022-09-20T22:08:35.013Z,15.08
2022-09-20T22:11:02.801Z,15.16
2022-09-20T22:13:30.161Z,15.22
2022-09-20T22:16:05.073Z,15.12
2022-09-20T22:18:37.650Z,15.27
2022-09-20T22:21:11.226Z,15.26
2022-09-20T22:23:38.979Z,15.45
2022-09-20T22:26:07.888Z,15.48
2022-09-20T22:28:35.232Z,15.63
2022-09-20T22:31:08.504Z,15.50
2022-09-20T22:33:36.183Z,15.65
2022-09-20T22:36:03.547Z,15.80
2022-09-20T22:38:32.336Z,15.86
2022-09-20T22:40:59.746Z,15.73
2022-09-20T22:43:27.283Z,15.72
2022-09-20T22:45:55.054Z,15.89
2022-09-20T22:48:22.135Z,16.02
2022-09-20T22:50:49.216Z,16.12
2022-09-20T22:53:16.291Z,16.20
2022-09-20T22:55:44.711Z,16.10
2022-09-20T22:58:11.699Z,16.04
2022-09-20T23:00:38.801Z,16.11
2022-09-20T23:03:05.826Z,15.96
2022-09-20T23:05:32.908Z,15.95
2022-09-20T23:07:59.952Z,15.95
2022-09-20T23:10:26.986Z,15.85
2022-09-20T23:12:55.387Z,15.74
2022-09-20T23:15:22.456Z,15.78
2022-09-20T23:17:49.468Z,15.74
2022-09-20T23:20:16.870Z,15.61
2022-09-20T23:22:43.911Z,15.53
2022-09-20T23:25:10.998Z,15.44
2022-09-20T23:27:38.260Z,15.44
2022-09-20T23:30:08.196Z,15.40
2022-09-20T23:32:35.275Z,15.38
2022-09-20T23:35:02.326Z,15.34
2022-09-20T23:37:29.433Z,15.27
2022-09-20T23:39:56.904Z,15.20
2022-09-20T23:42:23.976Z,15.10
2022-09-20T23:44:51.045Z,15.10
2022-09-20T23:47:19.485Z,15.10
2022-09-20T23:49:46.490Z,15.18
2022-09-20T23:52:13.528Z,15.08
2022-09-20T23:54:40.592Z,15.03
2022-09-20T23:57:07.622Z,14.95
2022-09-20T23:59:37.370Z,14.90
